Time;durP1;ratioP1;P1;durP2;ratioP2;P2;SDS_P1;SDS_P2;PMS_P1;PMS_P2;Temp;Humidity;BMP_temperature;BMP_pressure;BME280_temperature;BME280_humidity;BME280_pressure;Samples;Min_cycle;Max_cycle;Signal;HPM_P1;HPM_P2
2022/06/12 00:01:58;;;;;;;;;7.50;7.50;;;;;17.10;64.15;100502.47;5116182;28;8844;-65
2022/06/12 00:04:26;;;;;;;;;8.50;8.50;;;;;17.08;64.41;100499.06;5115864;28;8824;-63
2022/06/12 00:06:53;;;;;;;;;9.20;7.80;;;;;17.07;64.39;100508.97;5114322;28;9844;-64
2022/06/12 00:09:23;;;;;;;;;8.00;7.50;;;;;17.06;64.81;100496.53;5115335;28;8858;-63
2022/06/12 00:11:50;;;;;;;;;9.50;8.00;;;;;17.03;64.47;100502.22;5099254;28;8826;-64
2022/06/12 00:14:19;;;;;;;;;5.50;4.00;;;;;16.99;64.51;100502.63;5095350;28;8821;-63
2022/06/12 00:16:46;;;;;;;;;11.50;11.50;;;;;16.95;64.94;100504.78;5095103;28;8860;-64
2022/06/12 00:19:15;;;;;;;;;4.40;4.40;;;;;16.92;64.90;100504.22;5094954;28;8838;-63
2022/06/12 00:21:42;;;;;;;;;9.00;9.00;;;;;16.89;64.52;100505.41;5094871;28;8857;-64
2022/06/12 00:24:10;;;;;;;;;11.00;11.00;;;;;16.85;64.71;100505.84;5095154;28;8865;-65
2022/06/12 00:26:39;;;;;;;;;8.50;8.50;;;;;16.80;65.45;100514.31;5094533;28;8849;-63
2022/06/12 00:29:06;;;;;;;;;9.00;9.00;;;;;16.76;64.83;100510.25;5109174;28;8830;-63
2022/06/12 00:31:34;;;;;;;;;9.50;9.00;;;;;16.75;65.07;100502.31;5113893;28;8843;-63
2022/06/12 00:34:02;;;;;;;;;11.00;9.50;;;;;16.73;65.05;100498.94;5114711;28;8850;-63
2022/06/12 00:36:30;;;;;;;;;7.50;7.50;;;;;16.71;65.52;100501.78;5115502;28;8851;-63
2022/06/12 00:38:58;;;;;;;;;6.25;6.00;;;;;16.70;65.40;100501.94;5116141;28;8851;-64
2022/06/12 00:41:26;;;;;;;;;7.00;6.25;;;;;16.68;65.31;100502.06;5115545;28;8867;-64
2022/06/12 00:43:54;;;;;;;;;9.00;9.00;;;;;16.70;65.33;100508.16;5115440;28;8831;-63
2022/06/12 00:46:22;;;;;;;;;9.25;9.00;;;;;16.69;65.39;100503.75;5115545;28;8832;-64
2022/06/12 00:48:52;;;;;;;;;9.25;9.00;;;;;16.70;64.92;100504.63;5114956;28;8863;-64
2022/06/12 00:51:20;;;;;;;;;6.25;6.00;;;;;16.70;65.18;100505.47;5115603;28;8849;-64
2022/06/12 00:53:47;;;;;;;;;6.50;6.25;;;;;16.73;64.86;100509.69;5115988;28;8835;-63
2022/06/12 00:56:15;;;;;;;;;9.00;9.00;;;;;16.74;65.33;100506.88;5115345;28;8843;-63
2022/06/12 00:58:44;;;;;;;;;10.50;10.00;;;;;16.72;64.92;100508.84;5100102;28;8830;-63
2022/06/12 01:01:12;;;;;;;;;9.40;9.00;;;;;16.69;65.30;100508.28;5095103;28;8854;-63
2022/06/12 01:06:37;;;;;;;;;8.50;8.50;;;;;16.61;65.53;100511.72;5093482;28;8946;-64
2022/06/12 01:09:05;;;;;;;;;8.00;7.00;;;;;16.56;65.77;100514.00;5094744;28;8838;-65
2022/06/12 01:11:33;;;;;;;;;9.50;9.00;;;;;16.52;65.34;100504.53;5098300;28;8837;-64
2022/06/12 01:14:00;;;;;;;;;10.00;10.00;;;;;16.49;65.72;100501.28;5098331;28;8838;-64
2022/06/12 01:16:28;;;;;;;;;11.00;9.25;;;;;16.43;65.93;100508.09;5098760;28;8845;-64
2022/06/12 01:18:57;;;;;;;;;11.00;11.00;;;;;16.37;65.56;100510.50;5098833;28;8972;-64
2022/06/12 01:21:24;;;;;;;;;9.00;7.00;;;;;16.31;66.00;100506.53;5098647;28;8890;-64
2022/06/12 01:23:53;;;;;;;;;7.00;7.00;;;;;16.30;65.89;100506.66;5098621;28;8948;-64
2022/06/12 01:26:21;;;;;;;;;7.00;7.00;;;;;16.26;66.35;100508.78;5098399;28;8830;-64
2022/06/12 01:28:48;;;;;;;;;9.25;8.50;;;;;16.20;66.30;100504.00;5113787;28;8812;-63
2022/06/12 01:31:16;;;;;;;;;9.25;9.00;;;;;16.16;66.60;100500.91;5118679;28;8986;-64
2022/06/12 01:33:44;;;;;;;;;10.50;8.25;;;;;16.11;66.76;100503.16;5119154;28;8904;-64
2022/06/12 01:36:12;;;;;;;;;9.00;8.00;;;;;16.07;66.49;100501.78;5115319;28;8816;-64
2022/06/12 01:38:40;;;;;;;;;8.75;8.00;;;;;16.03;66.30;100501.22;5118564;28;8832;-66
2022/06/12 01:41:08;;;;;;;;;10.50;10.00;;;;;16.00;66.55;100511.38;5118475;28;8966;-65
2022/06/12 01:43:35;;;;;;;;;7.50;7.50;;;;;15.97;66.94;100508.97;5118282;28;8820;-64
2022/06/12 01:46:04;;;;;;;;;9.50;9.00;;;;;15.95;66.43;100497.53;5118887;28;8835;-64
2022/06/12 01:48:32;;;;;;;;;9.50;8.25;;;;;15.96;67.09;100488.47;5118399;28;8959;-64
2022/06/12 01:51:00;;;;;;;;;9.75;9.75;;;;;15.93;67.02;100503.03;5118427;28;8842;-64
2022/06/12 01:53:28;;;;;;;;;9.50;9.00;;;;;15.93;66.65;100500.34;5118335;28;8859;-64
2022/06/12 01:55:55;;;;;;;;;8.75;7.50;;;;;15.91;66.75;100490.75;5116605;28;8887;-64
2022/06/12 01:58:24;;;;;;;;;10.00;10.00;;;;;15.90;67.22;100497.97;5103994;28;8814;-65
2022/06/12 02:00:52;;;;;;;;;10.00;8.50;;;;;15.89;67.22;100496.25;5095825;28;8889;-68
2022/06/12 02:03:20;;;;;;;;;8.00;7.00;;;;;15.86;66.60;100501.91;5095628;28;8842;-64
2022/06/12 02:05:47;;;;;;;;;10.00;10.00;;;;;15.81;66.90;100498.81;5097273;28;8842;-64
2022/06/12 02:08:16;;;;;;;;;11.50;11.50;;;;;15.77;66.85;100492.00;5097333;28;8921;-64
2022/06/12 02:10:43;;;;;;;;;9.00;9.00;;;;;15.73;67.13;100492.44;5097686;28;8842;-65
2022/06/12 02:13:14;;;;;;;;;9.75;9.75;;;;;15.66;67.28;100500.22;5097223;28;8842;-64
2022/06/12 02:15:42;;;;;;;;;11.00;9.50;;;;;15.60;67.72;100502.59;5098553;28;8834;-63
2022/06/12 02:18:10;;;;;;;;;8.25;8.25;;;;;15.55;67.88;100503.03;5097305;28;8826;-64
2022/06/12 02:20:38;;;;;;;;;9.50;9.50;;;;;15.51;67.76;100496.25;5096964;28;8834;-65
2022/06/12 02:23:06;;;;;;;;;8.50;8.50;;;;;15.49;67.95;100497.38;5096360;28;8979;-64
2022/06/12 02:25:34;;;;;;;;;10.50;10.25;;;;;15.49;67.37;100498.19;5097739;28;9503;-65
2022/06/12 02:28:03;;;;;;;;;9.00;8.00;;;;;15.48;67.93;100501.03;5104862;28;8943;-63
2022/06/12 02:30:30;;;;;;;;;7.00;7.00;;;;;15.48;67.44;100501.03;5118179;28;8878;-64
2022/06/12 02:32:58;;;;;;;;;10.50;9.25;;;;;15.47;67.61;100496.66;5117953;28;8855;-64
2022/06/12 02:35:26;;;;;;;;;6.75;6.00;;;;;15.44;67.44;100491.56;5117830;28;8824;-64
2022/06/12 02:37:54;;;;;;;;;9.75;9.25;;;;;15.39;67.55;100496.53;5117548;28;8836;-64
2022/06/12 02:40:23;;;;;;;;;8.75;8.75;;;;;15.34;67.78;100494.25;5117910;28;8824;-64
2022/06/12 02:42:51;;;;;;;;;7.25;6.75;;;;;15.30;68.06;100491.94;5117566;28;8892;-64
2022/06/12 02:45:18;;;;;;;;;11.50;11.50;;;;;15.27;68.13;100490.41;5117474;28;8820;-64
2022/06/12 02:47:47;;;;;;;;;8.00;6.25;;;;;15.24;68.20;100487.97;5117001;28;8863;-63
2022/06/12 02:50:14;;;;;;;;;12.25;11.50;;;;;15.22;68.41;100491.78;5117104;28;8836;-63
2022/06/12 02:52:42;;;;;;;;;10.50;10.00;;;;;15.18;68.03;100487.69;5116864;28;8944;-64
2022/06/12 02:55:11;;;;;;;;;9.25;9.25;;;;;15.17;67.88;100497.56;5117200;28;8896;-63
2022/06/12 02:57:39;;;;;;;;;9.75;9.00;;;;;15.16;68.10;100497.72;5111707;28;8840;-64
2022/06/12 03:00:06;;;;;;;;;9.00;9.00;;;;;15.14;68.15;100491.59;5096998;28;8834;-64
2022/06/12 03:02:34;;;;;;;;;12.50;10.50;;;;;15.12;68.31;100504.31;5096239;28;8837;-64
2022/06/12 03:05:02;;;;;;;;;8.00;6.50;;;;;15.07;68.13;100491.31;5097031;28;8850;-64
2022/06/12 03:07:31;;;;;;;;;11.50;9.25;;;;;15.02;68.08;100503.44;5096661;28;8906;-65
2022/06/12 03:09:59;;;;;;;;;9.50;7.00;;;;;14.94;68.41;100500.59;5096986;28;8849;-64
2022/06/12 03:12:28;;;;;;;;;10.00;9.25;;;;;14.88;68.60;100501.97;5096253;28;8838;-65
2022/06/12 03:14:55;;;;;;;;;6.75;6.50;;;;;14.83;69.03;100501.56;5096436;28;8830;-64
2022/06/12 03:17:23;;;;;;;;;8.50;8.50;;;;;14.79;68.82;100499.28;5096589;28;8830;-64
2022/06/12 03:19:51;;;;;;;;;6.00;6.00;;;;;14.75;68.85;100497.84;5096063;28;8826;-64
2022/06/12 03:22:19;;;;;;;;;9.50;8.50;;;;;14.71;68.79;100493.75;5095987;28;8830;-63
2022/06/12 03:24:47;;;;;;;;;7.50;7.00;;;;;14.66;68.87;100490.59;5095422;28;8976;-64
2022/06/12 03:27:14;;;;;;;;;7.00;7.00;;;;;14.62;69.21;100490.03;5097231;28;8846;-64
2022/06/12 03:29:42;;;;;;;;;7.00;6.50;;;;;14.59;69.09;100492.13;5116476;28;8824;-64
2022/06/12 03:32:10;;;;;;;;;7.50;6.00;;;;;14.55;69.49;100498.72;5116613;28;8885;-64
2022/06/12 03:34:38;;;;;;;;;12.00;9.75;;;;;14.52;69.21;100488.28;5115691;28;8970;-64
2022/06/12 03:37:06;;;;;;;;;12.00;9.75;;;;;14.47;69.12;100488.69;5116456;28;8855;-63
2022/06/12 03:39:33;;;;;;;;;9.75;8.75;;;;;14.46;69.04;100495.03;5113446;28;8858;-63
2022/06/12 03:42:01;;;;;;;;;7.00;6.25;;;;;14.46;69.80;100491.47;5113816;28;8824;-63
2022/06/12 03:44:29;;;;;;;;;8.00;7.00;;;;;14.46;69.36;100494.16;5115735;28;8832;-64
2022/06/12 03:46:57;;;;;;;;;9.25;9.25;;;;;14.45;69.05;100495.16;5115768;28;8859;-64
2022/06/12 03:49:25;;;;;;;;;8.00;7.00;;;;;14.47;69.48;100490.50;5116142;28;9798;-63
2022/06/12 03:51:53;;;;;;;;;8.50;8.50;;;;;14.51;69.14;100491.94;5115556;28;8856;-64
2022/06/12 03:54:21;;;;;;;;;7.00;6.00;;;;;14.53;68.73;100500.69;5115564;28;8858;-64
2022/06/12 03:59:34;;;;;;;;;7.00;7.00;;;;;14.53;68.91;100500.69;5093877;28;8840;-64
2022/06/12 04:02:02;;;;;;;;;9.25;6.75;;;;;14.55;68.87;100499.59;5095951;28;8854;-64
2022/06/12 04:04:30;;;;;;;;;9.25;7.50;;;;;14.59;69.28;100500.16;5095768;28;8834;-64
2022/06/12 04:06:59;;;;;;;;;9.50;9.00;;;;;14.63;68.92;100504.28;5095983;28;8846;-63
2022/06/12 04:09:27;;;;;;;;;7.50;6.75;;;;;14.70;68.48;100503.59;5095652;28;8834;-64
2022/06/12 04:11:55;;;;;;;;;7.50;7.50;;;;;14.75;68.63;100495.16;5095213;28;8854;-63
2022/06/12 04:14:23;;;;;;;;;10.00;9.25;;;;;14.83;68.12;100506.06;5095747;28;9618;-64
2022/06/12 04:16:50;;;;;;;;;8.00;8.00;;;;;14.90;68.33;100497.34;5095476;28;8826;-64
2022/06/12 04:19:18;;;;;;;;;8.00;7.00;;;;;14.98;68.37;100496.66;5096076;28;8852;-63
2022/06/12 04:21:46;;;;;;;;;7.50;7.50;;;;;15.08;67.64;100500.19;5095547;28;8826;-63
2022/06/12 04:24:14;;;;;;;;;6.50;6.50;;;;;15.15;67.89;100498.66;5095688;28;8830;-64
2022/06/12 04:26:42;;;;;;;;;10.00;10.00;;;;;15.21;67.44;100495.44;5101013;28;8828;-64
2022/06/12 04:29:10;;;;;;;;;10.00;9.50;;;;;15.27;67.59;100492.22;5116206;28;8962;-64
2022/06/12 04:31:38;;;;;;;;;10.00;9.75;;;;;15.35;67.36;100492.41;5115263;28;9517;-68
2022/06/12 04:34:06;;;;;;;;;9.00;8.00;;;;;15.47;66.90;100494.00;5115559;28;8870;-64
2022/06/12 04:36:33;;;;;;;;;12.00;9.50;;;;;15.58;66.25;100493.84;5115880;28;8812;-64
2022/06/12 04:39:02;;;;;;;;;6.00;6.00;;;;;15.68;66.48;100495.56;5115484;28;8932;-64
2022/06/12 04:41:29;;;;;;;;;7.50;7.50;;;;;15.76;65.86;100502.91;5115524;28;8823;-64
2022/06/12 04:43:57;;;;;;;;;7.00;6.75;;;;;15.84;66.36;100503.06;5113820;28;8824;-64
2022/06/12 04:46:25;;;;;;;;;9.50;9.25;;;;;15.91;66.33;100501.50;5117730;28;8857;-64
2022/06/12 04:48:53;;;;;;;;;9.00;9.00;;;;;16.00;66.20;100498.78;5119549;28;8954;-64
2022/06/12 04:51:21;;;;;;;;;7.00;7.00;;;;;16.09;65.96;100497.09;5119610;28;8923;-63
2022/06/12 04:53:48;;;;;;;;;7.50;7.50;;;;;16.17;65.47;100490.03;5119172;28;8916;-64
2022/06/12 04:56:16;;;;;;;;;8.00;8.00;;;;;16.30;65.63;100493.22;5118034;28;8849;-65
2022/06/12 04:58:44;;;;;;;;;6.25;6.25;;;;;16.44;64.89;100495.50;5118577;28;8832;-64
2022/06/12 05:01:12;;;;;;;;;10.00;9.25;;;;;16.55;65.13;100492.66;5119619;28;8840;-64
2022/06/12 05:03:40;;;;;;;;;9.00;7.00;;;;;16.65;64.45;100488.91;5119550;28;8827;-64
2022/06/12 05:06:08;;;;;;;;;7.00;6.00;;;;;16.73;64.61;100491.72;5117872;28;9805;-65
2022/06/12 05:08:36;;;;;;;;;11.50;11.50;;;;;16.80;64.25;100489.28;5117144;28;8852;-66
2022/06/12 05:11:04;;;;;;;;;9.00;9.00;;;;;16.88;64.27;100492.09;5119048;28;8844;-65
2022/06/12 05:13:31;;;;;;;;;9.00;9.00;;;;;16.98;64.27;100484.81;5118663;28;9493;-64
2022/06/12 05:15:59;;;;;;;;;10.00;8.50;;;;;17.07;64.33;100489.28;5119300;28;8828;-64
2022/06/12 05:18:28;;;;;;;;;9.00;9.00;;;;;17.13;64.05;100486.00;5118866;28;8844;-64
2022/06/12 05:20:57;;;;;;;;;8.60;7.00;;;;;17.20;63.64;100485.25;5118881;28;8851;-64
2022/06/12 05:23:25;;;;;;;;;14.00;12.50;;;;;17.27;63.63;100480.97;5101214;28;8846;-64
2022/06/12 05:25:52;;;;;;;;;10.40;9.20;;;;;17.34;63.90;100486.59;5117075;28;9513;-64
2022/06/12 05:28:27;;;;;;;;;5.60;3.80;;;;;17.41;63.78;100483.19;5098401;28;8830;-64
2022/06/12 05:30:55;;;;;;;;;9.20;7.00;;;;;17.53;63.65;100487.31;5098283;28;8849;-65
2022/06/12 05:33:23;;;;;;;;;9.20;7.40;;;;;17.63;63.67;100484.56;5098680;28;8830;-64
2022/06/12 05:35:50;;;;;;;;;9.20;8.20;;;;;17.72;62.93;100494.41;5097794;28;8836;-64
2022/06/12 05:38:20;;;;;;;;;9.40;9.00;;;;;17.84;62.41;100488.63;5098328;28;8891;-64
2022/06/12 05:40:47;;;;;;;;;10.20;8.20;;;;;17.99;62.41;100494.34;5098051;28;8833;-64
2022/06/12 05:43:15;;;;;;;;;13.00;11.40;;;;;18.11;62.52;100485.84;5097103;28;8841;-64
2022/06/12 05:45:43;;;;;;;;;11.60;11.20;;;;;18.23;62.36;100484.56;5097468;28;8833;-65
2022/06/12 05:48:12;;;;;;;;;8.60;7.60;;;;;18.35;62.06;100487.91;5096516;28;9541;-64
2022/06/12 05:50:41;;;;;;;;;9.40;8.20;;;;;18.49;61.85;100479.22;5097212;28;8837;-65
2022/06/12 05:53:09;;;;;;;;;7.20;7.20;;;;;18.60;61.38;100479.81;5096459;28;8856;-64
2022/06/12 05:55:37;;;;;;;;;6.00;5.40;;;;;18.69;61.34;100478.00;5096182;28;8841;-64
2022/06/12 05:58:05;;;;;;;;;5.40;5.00;;;;;18.75;61.51;100475.50;5114806;28;8844;-64
2022/06/12 06:00:33;;;;;;;;;5.60;5.60;;;;;18.80;61.00;100475.00;5116501;28;8847;-64
2022/06/12 06:03:01;;;;;;;;;4.40;4.40;;;;;18.87;60.66;100481.47;5116877;28;8843;-64
2022/06/12 06:05:29;;;;;;;;;5.20;4.00;;;;;18.94;61.10;100487.91;5116702;28;8870;-66
2022/06/12 06:07:57;;;;;;;;;3.20;3.20;;;;;18.98;61.00;100486.59;5117097;28;8836;-65
2022/06/12 06:10:25;;;;;;;;;3.80;3.80;;;;;19.00;60.67;100480.03;5117958;28;8847;-64
2022/06/12 06:12:53;;;;;;;;;4.00;4.00;;;;;19.03;60.85;100479.69;5117779;28;8832;-65
2022/06/12 06:15:21;;;;;;;;;4.00;3.00;;;;;19.09;61.01;100478.19;5118005;28;8820;-64
2022/06/12 06:17:49;;;;;;;;;3.60;2.20;;;;;19.16;60.97;100480.09;5117963;28;8909;-65
2022/06/12 06:20:17;;;;;;;;;2.20;2.20;;;;;19.24;60.33;100485.56;5117896;28;8852;-64
2022/06/12 06:22:44;;;;;;;;;5.20;4.00;;;;;19.31;60.32;100489.28;5116852;28;8847;-64
2022/06/12 06:25:12;;;;;;;;;2.40;2.40;;;;;19.36;60.17;100491.50;5117483;28;8820;-64
2022/06/12 06:27:40;;;;;;;;;2.20;2.00;;;;;19.43;59.98;100487.94;5100749;28;8842;-65
2022/06/12 06:30:08;;;;;;;;;4.40;3.00;;;;;19.52;59.52;100494.22;5097030;28;8841;-64
2022/06/12 06:32:35;;;;;;;;;4.00;2.20;;;;;19.59;59.18;100492.56;5097056;28;8833;-64
2022/06/12 06:35:04;;;;;;;;;4.20;4.00;;;;;19.66;59.21;100499.00;5097055;28;8829;-64
2022/06/12 06:37:32;;;;;;;;;2.00;2.00;;;;;19.74;59.46;100496.31;5095877;28;8826;-64
2022/06/12 06:40:00;;;;;;;;;2.40;2.00;;;;;19.78;58.81;100501.22;5103158;28;8836;-64
2022/06/12 06:42:28;;;;;;;;;2.40;2.00;;;;;19.86;58.70;100500.38;5117277;28;8824;-64
2022/06/12 06:47:41;;;;;;;;;3.60;2.00;;;;;20.00;58.74;100500.56;5117158;28;8828;-64
2022/06/12 06:50:09;;;;;;;;;3.80;2.40;;;;;20.06;58.46;100496.34;5116973;28;8831;-65
2022/06/12 06:52:37;;;;;;;;;3.60;3.60;;;;;20.07;58.75;100498.91;5117303;28;8924;-65
2022/06/12 06:55:05;;;;;;;;;3.60;3.60;;;;;20.14;58.17;100497.22;5117362;28;8872;-64
2022/06/12 06:57:34;;;;;;;;;5.00;4.40;;;;;20.22;58.04;100501.75;5101227;28;8891;-65
2022/06/12 07:00:02;;;;;;;;;4.00;4.00;;;;;20.23;58.01;100504.31;5095112;28;8846;-64
2022/06/12 07:02:30;;;;;;;;;1.40;1.40;;;;;20.27;58.44;100504.81;5094635;28;8830;-64
2022/06/12 07:04:59;;;;;;;;;5.40;5.00;;;;;20.31;58.25;100506.19;5094709;28;8902;-64
2022/06/12 07:07:27;;;;;;;;;4.00;4.00;;;;;20.40;57.84;100507.84;5094452;28;8826;-64
2022/06/12 07:09:55;;;;;;;;;2.40;2.40;;;;;20.53;57.55;100495.47;5094566;28;8829;-64
2022/06/12 07:12:23;;;;;;;;;4.40;2.80;;;;;20.58;57.80;100501.25;5094542;28;8834;-64
2022/06/12 07:14:50;;;;;;;;;2.00;1.80;;;;;20.63;57.31;100501.53;5095256;28;8838;-64
2022/06/12 07:17:19;;;;;;;;;3.60;2.00;;;;;20.68;57.19;100510.00;5095345;28;8966;-65
2022/06/12 07:19:47;;;;;;;;;3.20;3.20;;;;;20.70;57.49;100505.25;5095500;28;8833;-65
2022/06/12 07:22:15;;;;;;;;;4.40;4.00;;;;;20.74;56.98;100506.63;5095559;28;8858;-64
2022/06/12 07:24:42;;;;;;;;;5.80;5.00;;;;;20.77;56.92;100503.53;5095576;28;8818;-64
2022/06/12 07:27:11;;;;;;;;;2.40;2.40;;;;;20.82;56.75;100507.41;5106721;28;8902;-64
2022/06/12 07:29:38;;;;;;;;;2.80;2.00;;;;;20.92;57.07;100506.44;5116039;28;8850;-65
2022/06/12 07:32:06;;;;;;;;;1.00;1.00;;;;;21.09;56.16;100503.47;5116146;28;9044;-65
2022/06/12 07:34:34;;;;;;;;;2.00;2.00;;;;;21.14;56.38;100498.38;5115809;28;9582;-65
2022/06/12 07:37:02;;;;;;;;;4.20;4.20;;;;;21.16;56.18;100499.03;5116887;28;8816;-64
2022/06/12 07:39:29;;;;;;;;;1.60;1.60;;;;;21.18;56.13;100497.03;5116027;28;8900;-64
2022/06/12 07:41:57;;;;;;;;;1.40;1.40;;;;;21.17;56.43;100508.84;5116412;28;8836;-65
2022/06/12 07:44:25;;;;;;;;;4.00;2.00;;;;;21.18;56.38;100515.97;5115712;28;8836;-64
2022/06/12 07:46:53;;;;;;;;;2.40;2.40;;;;;21.21;56.63;100513.78;5114503;28;8832;-64
2022/06/12 07:49:21;;;;;;;;;2.00;2.00;;;;;21.28;56.42;100513.91;5115531;28;8848;-64
2022/06/12 07:51:49;;;;;;;;;1.00;1.00;;;;;21.32;55.97;100509.78;5115809;28;8824;-65
2022/06/12 07:54:17;;;;;;;;;3.60;2.00;;;;;21.40;55.74;100515.22;5115032;28;8836;-65
2022/06/12 07:56:45;;;;;;;;;4.60;4.60;;;;;21.50;55.66;100510.41;5103774;28;8810;-65
2022/06/12 07:59:12;;;;;;;;;4.00;4.00;;;;;21.56;55.35;100512.41;5094815;28;8849;-65
2022/06/12 08:01:40;;;;;;;;;1.40;1.00;;;;;21.60;55.34;100509.16;5094854;28;9573;-65
2022/06/12 08:04:08;;;;;;;;;3.20;2.00;;;;;21.68;55.24;100509.13;5094247;28;8841;-65
2022/06/12 08:06:36;;;;;;;;;2.00;2.00;;;;;21.72;55.10;100513.16;5094092;28;8864;-65
2022/06/12 08:09:05;;;;;;;;;1.00;1.00;;;;;21.76;55.47;100513.66;5093800;28;8960;-65
2022/06/12 08:11:33;;;;;;;;;1.80;1.80;;;;;21.79;55.07;100513.31;5093628;28;8976;-65
2022/06/12 08:14:01;;;;;;;;;1.40;1.40;;;;;21.81;55.02;100503.13;5093849;28;8850;-65
2022/06/12 08:16:29;;;;;;;;;2.40;1.80;;;;;21.85;54.99;100505.28;5093424;28;9785;-65
2022/06/12 08:18:57;;;;;;;;;3.20;2.40;;;;;21.88;55.02;100502.19;5093474;28;8867;-65
2022/06/12 08:21:25;;;;;;;;;4.40;4.40;;;;;21.94;54.57;100492.53;5096003;28;8830;-65
2022/06/12 08:23:53;;;;;;;;;2.00;1.00;;;;;22.04;54.68;100501.25;5106019;28;8862;-65
2022/06/12 08:26:21;;;;;;;;;1.00;0.00;;;;;22.15;54.24;100498.13;5118142;28;8832;-65
2022/06/12 08:28:48;;;;;;;;;1.60;1.20;;;;;22.20;54.15;100506.53;5103759;28;8806;-65
2022/06/12 08:31:16;;;;;;;;;2.00;1.60;;;;;22.20;53.78;100504.69;5097930;28;8866;-66
2022/06/12 08:33:44;;;;;;;;;4.00;4.00;;;;;22.23;53.85;100507.03;5097571;28;8851;-64
2022/06/12 08:36:12;;;;;;;;;1.60;1.60;;;;;22.23;54.07;100508.91;5099018;28;8842;-65
2022/06/12 08:38:40;;;;;;;;;1.60;1.60;;;;;22.26;54.07;100503.09;5099555;28;8899;-65
2022/06/12 08:41:08;;;;;;;;;4.00;2.00;;;;;22.30;53.38;100501.72;5098987;28;8842;-65
2022/06/12 08:43:36;;;;;;;;;2.00;2.00;;;;;22.37;53.90;100505.38;5098824;28;8832;-64
2022/06/12 08:46:04;;;;;;;;;1.80;1.80;;;;;22.45;53.32;100506.19;5098502;28;8837;-64
2022/06/12 08:48:33;;;;;;;;;2.00;2.00;;;;;22.45;53.21;100499.88;5098376;28;8833;-65
2022/06/12 08:51:01;;;;;;;;;2.00;2.00;;;;;22.51;53.08;100489.16;5099169;28;9518;-65
2022/06/12 08:53:30;;;;;;;;;3.60;2.80;;;;;22.61;52.86;100487.00;5098833;28;8834;-64
2022/06/12 08:55:58;;;;;;;;;1.00;1.00;;;;;22.77;52.97;100494.97;5098648;28;9531;-65
2022/06/12 08:58:26;;;;;;;;;1.00;1.00;;;;;22.92;52.61;100489.56;5108099;28;8815;-64
2022/06/12 09:00:54;;;;;;;;;2.00;2.00;;;;;23.04;52.34;100486.19;5119173;28;8975;-65
2022/06/12 09:03:22;;;;;;;;;0.00;0.00;;;;;23.17;52.00;100480.13;5118369;28;9092;-65
2022/06/12 09:05:51;;;;;;;;;4.00;2.00;;;;;23.37;51.80;100478.50;5118661;28;8904;-65
2022/06/12 09:08:19;;;;;;;;;1.80;1.80;;;;;23.52;51.01;100477.41;5118604;28;8824;-64
2022/06/12 09:10:47;;;;;;;;;2.00;1.40;;;;;23.59;50.83;100472.88;5119018;28;8812;-65
2022/06/12 09:13:15;;;;;;;;;2.00;2.00;;;;;23.62;50.83;100472.53;5118489;28;8856;-66
2022/06/12 09:15:43;;;;;;;;;3.80;2.20;;;;;23.60;50.99;100469.13;5118486;28;8836;-65
2022/06/12 09:18:11;;;;;;;;;3.00;2.00;;;;;23.56;50.86;100462.41;5119177;28;8940;-65
2022/06/12 09:20:39;;;;;;;;;1.20;1.20;;;;;23.69;50.72;100464.41;5118340;28;8909;-65
2022/06/12 09:23:07;;;;;;;;;2.00;1.80;;;;;23.79;50.79;100470.38;5117558;28;8852;-65
2022/06/12 09:25:41;;;;;;;;;4.80;2.80;;;;;23.88;50.28;100455.63;5117583;28;8966;-65
2022/06/12 09:28:09;;;;;;;;;2.40;2.00;;;;;23.92;50.40;100467.84;5109794;28;8838;-65
2022/06/12 09:30:38;;;;;;;;;4.40;2.00;;;;;24.02;49.96;100461.03;5097784;28;8874;-65
2022/06/12 09:33:06;;;;;;;;;2.60;2.00;;;;;24.14;49.96;100458.63;5096178;28;8838;-65
2022/06/12 09:35:33;;;;;;;;;3.00;2.60;;;;;24.26;49.91;100457.06;5097249;28;8822;-65
2022/06/12 09:38:21;;;;;;;;;1.20;1.20;;;;;24.32;49.57;100451.66;5097813;28;8968;-65
2022/06/12 09:40:49;;;;;;;;;2.40;2.00;;;;;24.45;49.74;100451.75;5098040;28;8834;-65
2022/06/12 09:43:17;;;;;;;;;1.80;1.80;;;;;24.55;48.70;100456.84;5097605;28;8826;-65
2022/06/12 09:45:44;;;;;;;;;2.00;2.00;;;;;24.57;48.95;100450.19;5097709;28;8841;-65
2022/06/12 09:48:12;;;;;;;;;2.80;2.00;;;;;24.62;49.01;100447.72;5096913;28;8830;-65
2022/06/12 09:50:41;;;;;;;;;3.00;2.00;;;;;24.67;49.19;100445.25;5096344;28;8837;-65
2022/06/12 09:53:09;;;;;;;;;1.60;1.60;;;;;24.78;48.30;100443.81;5096602;28;8972;-65
2022/06/12 09:55:36;;;;;;;;;1.20;1.20;;;;;24.85;48.61;100452.88;5097615;28;8950;-65
2022/06/12 09:58:04;;;;;;;;;1.00;1.00;;;;;24.90;48.40;100450.41;5102881;28;8819;-65
2022/06/12 10:00:32;;;;;;;;;2.40;2.40;;;;;24.98;47.90;100433.88;5117878;28;8843;-65
2022/06/12 10:03:05;;;;;;;;;2.60;2.20;;;;;25.09;47.57;100428.69;5118209;28;8882;-68
2022/06/12 10:05:33;;;;;;;;;3.80;1.40;;;;;25.30;46.97;100435.91;5117636;28;8954;-65
2022/06/12 10:08:02;;;;;;;;;2.60;2.60;;;;;25.55;46.43;100428.88;5116918;28;8908;-65
2022/06/12 10:10:30;;;;;;;;;3.00;3.00;;;;;25.79;46.19;100427.25;5116429;28;8843;-65
2022/06/12 10:12:58;;;;;;;;;2.00;2.00;;;;;26.18;45.45;100438.22;5116335;28;8874;-65
2022/06/12 10:15:26;;;;;;;;;3.00;3.00;;;;;26.44;44.71;100421.84;5116835;28;8854;-65
2022/06/12 10:17:56;;;;;;;;;2.00;2.00;;;;;26.62;44.37;100424.78;5117830;28;8824;-65
2022/06/12 10:20:24;;;;;;;;;3.00;2.20;;;;;26.92;44.26;100416.91;5117234;28;8847;-65
2022/06/12 10:22:52;;;;;;;;;3.60;3.00;;;;;27.29;43.46;100424.34;5117609;28;8954;-65
2022/06/12 10:25:19;;;;;;;;;3.00;2.00;;;;;27.40;42.87;100410.81;5116693;28;8836;-65
2022/06/12 10:27:47;;;;;;;;;2.00;2.00;;;;;27.68;42.97;100422.25;5110189;28;8806;-65
2022/06/12 10:30:15;;;;;;;;;2.80;2.80;;;;;27.94;42.50;100413.91;5095889;28;8846;-66
2022/06/12 10:32:43;;;;;;;;;2.00;2.00;;;;;28.16;42.63;100404.19;5096953;28;8838;-66
2022/06/12 10:35:11;;;;;;;;;2.00;2.00;;;;;28.52;41.71;100409.81;5095718;28;8976;-67
2022/06/12 10:37:39;;;;;;;;;2.40;2.40;;;;;28.84;41.27;100416.00;5095362;28;8876;-67
2022/06/12 10:40:07;;;;;;;;;2.20;2.00;;;;;29.14;41.31;100415.03;5095695;28;8880;-65
2022/06/12 10:42:34;;;;;;;;;4.00;3.20;;;;;29.39;40.62;100407.53;5094669;28;8818;-65
2022/06/12 10:45:02;;;;;;;;;1.00;1.00;;;;;29.56;40.45;100408.59;5093899;28;8964;-67
2022/06/12 10:47:30;;;;;;;;;3.20;3.00;;;;;29.57;40.66;100407.50;5094224;28;8842;-65
2022/06/12 10:49:58;;;;;;;;;2.00;2.00;;;;;29.85;39.70;100406.88;5094245;28;8899;-66
2022/06/12 10:52:26;;;;;;;;;2.00;2.00;;;;;30.09;39.78;100414.97;5093955;28;8844;-66
2022/06/12 10:54:53;;;;;;;;;2.80;2.40;;;;;30.22;39.54;100405.66;5093593;28;8834;-66
2022/06/12 10:57:23;;;;;;;;;3.00;3.00;;;;;30.39;39.65;100399.22;5095774;28;8838;-66
2022/06/12 10:59:51;;;;;;;;;1.00;1.00;;;;;30.49;39.44;100399.47;5114928;28;8823;-66
2022/06/12 11:02:18;;;;;;;;;2.00;1.80;;;;;30.55;39.34;100387.50;5115377;28;8836;-67
2022/06/12 11:04:46;;;;;;;;;1.00;0.00;;;;;30.81;38.74;100395.28;5114671;28;8827;-65
2022/06/12 11:07:14;;;;;;;;;1.00;0.60;;;;;30.99;38.35;100392.38;5114557;28;8831;-65
2022/06/12 11:09:42;;;;;;;;;1.80;1.80;;;;;31.12;38.69;100395.69;5115052;28;8831;-66
2022/06/12 11:12:10;;;;;;;;;1.00;1.00;;;;;31.13;38.18;100391.03;5114665;28;8839;-66
2022/06/12 11:14:38;;;;;;;;;0.00;0.00;;;;;31.10;37.96;100392.34;5114852;28;8836;-66
2022/06/12 11:17:06;;;;;;;;;0.00;0.00;;;;;31.29;37.28;100388.38;5115302;28;8843;-66
2022/06/12 11:19:34;;;;;;;;;1.00;1.00;;;;;31.55;37.02;100389.69;5115345;28;8836;-66
2022/06/12 11:22:01;;;;;;;;;1.00;1.00;;;;;31.70;36.60;100381.72;5114837;28;8860;-65
2022/06/12 11:24:29;;;;;;;;;0.00;0.00;;;;;31.96;35.88;100386.63;5114881;28;8955;-65
2022/06/12 11:26:57;;;;;;;;;0.00;0.00;;;;;32.12;36.13;100380.25;5114583;28;8832;-66
2022/06/12 11:29:25;;;;;;;;;1.00;1.00;;;;;32.16;35.87;100370.41;5094984;28;8826;-66
2022/06/12 11:31:53;;;;;;;;;1.00;1.00;;;;;32.23;36.12;100371.13;5094632;28;9000;-66
2022/06/12 11:34:20;;;;;;;;;0.80;0.80;;;;;32.30;35.59;100375.38;5093952;28;8878;-66
2022/06/12 11:36:48;;;;;;;;;1.00;0.60;;;;;32.35;35.49;100372.69;5094684;28;8969;-66
2022/06/12 11:39:16;;;;;;;;;1.00;1.00;;;;;32.38;35.56;100371.34;5094626;28;8846;-65
2022/06/12 11:41:44;;;;;;;;;1.00;1.00;;;;;32.60;35.02;100372.22;5094366;28;8903;-66
2022/06/12 11:44:12;;;;;;;;;0.60;0.60;;;;;32.70;35.23;100373.19;5094946;28;8826;-66